Time;durP1;ratioP1;P1;durP2;ratioP2;P2;SDS_P1;SDS_P2;PMS_P1;PMS_P2;Temp;Humidity;BMP_temperature;BMP_pressure;BME280_temperature;BME280_humidity;BME280_pressure;Samples;Min_cycle;Max_cycle;Signal;HPM_P1;HPM_P2
2023/03/22 00:01:15;;;;;;;10.27;7.50;;;;;;;-145.63;100.00;61273.97;5022333;28;20114;-65
2023/03/22 00:03:42;;;;;;;10.52;7.93;;;;;;;-145.63;100.00;61273.97;5020065;28;20022;-66
2023/03/22 00:06:08;;;;;;;9.65;7.05;;;;;;;-145.63;100.00;61273.97;5003690;28;20027;-65
2023/03/22 00:08:34;;;;;;;9.35;7.13;;;;;;;-145.63;100.00;61273.97;5021317;28;20077;-65
2023/03/22 00:11:00;;;;;;;11.43;8.05;;;;;;;-145.63;100.00;61273.97;5009542;28;20247;-65
2023/03/22 00:13:25;;;;;;;10.95;7.90;;;;;;;-145.63;100.00;61273.97;5013106;28;20025;-65
2023/03/22 00:15:51;;;;;;;9.90;7.45;;;;;;;-145.63;100.00;61273.97;5018341;28;20037;-65
2023/03/22 00:18:18;;;;;;;9.95;7.28;;;;;;;-145.63;100.00;61273.97;5004155;28;20041;-65
2023/03/22 00:20:52;;;;;;;10.10;7.75;;;;;;;-145.63;100.00;61273.97;5023303;28;20037;-65
2023/03/22 00:23:18;;;;;;;11.02;7.57;;;;;;;-145.63;100.00;61273.97;5039449;28;20071;-64
2023/03/22 00:25:44;;;;;;;8.57;7.18;;;;;;;-145.63;100.00;61273.97;5030494;28;20314;-65
2023/03/22 00:28:10;;;;;;;11.80;8.48;;;;;;;-145.63;100.00;61273.97;5015701;28;20325;-64
2023/03/22 00:30:36;;;;;;;10.07;7.50;;;;;;;-145.63;100.00;61273.97;5007074;28;20033;-66
2023/03/22 00:33:02;;;;;;;9.43;7.28;;;;;;;-145.63;100.00;61273.97;5041922;28;20210;-66
2023/03/22 00:35:28;;;;;;;10.15;7.95;;;;;;;-145.63;100.00;61273.97;5025516;28;20030;-65
2023/03/22 00:37:54;;;;;;;11.60;8.20;;;;;;;-145.63;100.00;61273.97;5023082;28;20313;-65
2023/03/22 00:40:19;;;;;;;11.93;8.23;;;;;;;-145.63;100.00;61273.97;5014253;28;20030;-64
2023/03/22 00:42:45;;;;;;;11.63;8.00;;;;;;;-145.63;100.00;61273.97;5023034;28;20100;-64
2023/03/22 00:45:12;;;;;;;13.25;8.30;;;;;;;-145.63;100.00;61273.97;5023022;28;20124;-63
2023/03/22 00:47:38;;;;;;;11.23;7.80;;;;;;;-145.63;100.00;61273.97;5003565;28;20034;-64
2023/03/22 00:50:05;;;;;;;10.90;7.68;;;;;;;-145.63;100.00;61273.97;5017409;28;20322;-64
2023/03/22 00:52:31;;;;;;;10.82;7.90;;;;;;;-145.63;100.00;61273.97;5013427;28;20026;-65
2023/03/22 00:54:57;;;;;;;11.75;8.52;;;;;;;-145.63;100.00;61273.97;5007516;28;20026;-64
2023/03/22 00:57:22;;;;;;;13.15;8.43;;;;;;;-145.63;100.00;61273.97;5022444;28;20069;-64
2023/03/22 00:59:48;;;;;;;12.60;8.23;;;;;;;-145.63;100.00;61273.97;5022457;28;20073;-65
2023/03/22 01:02:15;;;;;;;11.23;8.25;;;;;;;-145.63;100.00;61273.97;5036975;28;20060;-65
2023/03/22 01:04:45;;;;;;;12.88;8.38;;;;;;;-145.63;100.00;61273.97;5031560;28;20133;-65
2023/03/22 01:07:20;;;;;;;11.70;8.23;;;;;;;-145.63;100.00;61273.97;5015734;28;20027;-65
2023/03/22 01:09:47;;;;;;;10.43;7.88;;;;;;;-145.63;100.00;61273.97;5006796;28;20186;-65
2023/03/22 01:12:13;;;;;;;10.73;7.70;;;;;;;-145.63;100.00;61273.97;5021617;28;20233;-65
2023/03/22 01:14:39;;;;;;;9.43;7.85;;;;;;;-145.63;100.00;61273.97;5022711;28;20283;-65
2023/03/22 01:17:06;;;;;;;11.57;8.15;;;;;;;-145.63;100.00;61273.97;5008133;28;20034;-65
2023/03/22 01:19:33;;;;;;;11.52;7.82;;;;;;;-145.63;100.00;61273.97;5013855;28;20093;-65
2023/03/22 01:21:59;;;;;;;10.40;7.72;;;;;;;-145.63;100.00;61273.97;5022274;28;20034;-65
2023/03/22 01:24:24;;;;;;;10.70;7.97;;;;;;;-145.63;100.00;61273.97;5021824;28;20030;-64
2023/03/22 01:26:50;;;;;;;12.43;8.38;;;;;;;-145.63;100.00;61273.97;5003443;28;20036;-66
2023/03/22 01:29:16;;;;;;;10.27;7.80;;;;;;;-145.63;100.00;61273.97;5018425;28;20034;-66
2023/03/22 01:31:42;;;;;;;11.23;8.27;;;;;;;-145.63;100.00;61273.97;5031851;28;20057;-66
2023/03/22 01:34:08;;;;;;;10.45;7.97;;;;;;;-145.63;100.00;61273.97;5035600;28;20080;-65
2023/03/22 01:36:33;;;;;;;10.70;7.72;;;;;;;-145.63;100.00;61273.97;5003646;28;20030;-65
2023/03/22 01:38:59;;;;;;;12.02;8.38;;;;;;;-145.63;100.00;61273.97;5018304;28;20026;-65
2023/03/22 01:41:25;;;;;;;13.85;7.78;;;;;;;-145.63;100.00;61273.97;5019098;28;20026;-65
2023/03/22 01:44:23;;;;;;;12.27;7.93;;;;;;;-145.63;100.00;61273.97;5011276;28;20145;-65
2023/03/22 01:46:50;;;;;;;8.75;6.57;;;;;;;-145.63;100.00;61273.97;5005663;28;20041;-65
2023/03/22 01:49:21;;;;;;;11.35;7.72;;;;;;;-145.63;100.00;61273.97;5013438;28;20025;-65
2023/03/22 01:51:50;;;;;;;9.47;6.60;;;;;;;-145.63;100.00;61273.97;5023155;28;20058;-65
2023/03/22 01:54:25;;;;;;;9.68;7.38;;;;;;;-145.63;100.00;61273.97;5005711;28;20026;-64
2023/03/22 01:56:50;;;;;;;9.73;7.03;;;;;;;-145.63;100.00;61273.97;5005390;28;20083;-65
2023/03/22 01:59:17;;;;;;;10.63;6.90;;;;;;;-145.63;100.00;61273.97;5021399;28;20079;-65
2023/03/22 02:01:45;;;;;;;11.10;7.10;;;;;;;-145.63;100.00;61273.97;5025877;28;20115;-66
2023/03/22 02:04:15;;;;;;;12.30;6.80;;;;;;;-145.63;100.00;61273.97;5018205;28;20060;-65
2023/03/22 02:06:41;;;;;;;9.57;6.60;;;;;;;-145.63;100.00;61273.97;5020318;28;20030;-65
2023/03/22 02:09:10;;;;;;;8.77;6.50;;;;;;;-145.63;100.00;61273.97;5025698;28;20105;-65
2023/03/22 02:12:07;;;;;;;8.00;6.68;;;;;;;-145.63;100.00;61273.97;5008121;28;20030;-65
2023/03/22 02:14:48;;;;;;;9.27;6.57;;;;;;;-145.63;100.00;61273.97;5038476;28;20218;-66
2023/03/22 02:18:05;;;;;;;8.90;6.15;;;;;;;-145.63;100.00;61273.97;5044205;28;20103;-67
2023/03/22 02:20:37;;;;;;;7.90;6.35;;;;;;;-145.63;100.00;61273.97;5025994;28;20049;-65
2023/03/22 02:23:05;;;;;;;;;;;;;;;-145.63;100.00;61273.97;5038302;28;20025;-66
2023/03/22 02:25:56;;;;;;;9.70;6.80;;;;;;;-145.63;100.00;61273.97;5043848;28;19909;-65
2023/03/22 02:28:27;;;;;;;9.68;7.13;;;;;;;-145.63;100.00;61273.97;5036825;28;20030;-65
2023/03/22 02:31:17;;;;;;;8.52;6.18;;;;;;;-145.63;100.00;61273.97;5028313;28;20036;-65
2023/03/22 02:33:58;;;;;;;8.95;6.47;;;;;;;-145.63;100.00;61273.97;5041388;28;20349;-66
2023/03/22 02:36:24;;;;;;;8.85;6.88;;;;;;;-145.63;100.00;61273.97;5025074;28;20030;-65
2023/03/22 02:39:05;;;;;;;9.18;6.65;;;;;;;-145.63;100.00;61273.97;5044300;28;20241;-66
2023/03/22 02:41:53;;;;;;;8.48;6.30;;;;;;;-145.63;100.00;61273.97;5028205;28;20041;-65
2023/03/22 02:44:42;;;;;;;8.88;6.20;;;;;;;-145.63;100.00;61273.97;5009672;28;20063;-66
2023/03/22 02:47:19;;;;;;;9.05;7.13;;;;;;;-145.63;100.00;61273.97;5018758;28;20021;-64
2023/03/22 02:50:15;;;;;;;7.93;5.93;;;;;;;-145.63;100.00;61273.97;5013681;28;20097;-65
2023/03/22 02:53:11;;;;;;;8.43;6.55;;;;;;;-145.63;100.00;61273.97;5015330;28;20037;-65
2023/03/22 02:55:43;;;;;;;8.43;6.30;;;;;;;-145.63;100.00;61273.97;5014213;28;20042;-66
2023/03/22 02:58:11;;;;;;;;;;;;;;;-145.63;100.00;61273.97;5010953;28;20033;-64
2023/03/22 03:00:38;;;;;;;8.70;6.82;;;;;;;-145.63;100.00;61273.97;5023408;28;20178;-65
2023/03/22 03:03:16;;;;;;;9.02;7.00;;;;;;;-145.63;100.00;61273.97;5024558;28;20022;-66
2023/03/22 03:05:46;;;;;;;8.75;7.32;;;;;;;-145.63;100.00;61273.97;5006692;28;20085;-66
2023/03/22 03:08:14;;;;;;;10.60;7.15;;;;;;;-145.63;100.00;61273.97;5018589;28;20033;-65
2023/03/22 03:10:41;;;;;;;8.73;6.88;;;;;;;-145.63;100.00;61273.97;5014565;28;20031;-64
2023/03/22 03:13:12;;;;;;;9.48;6.75;;;;;;;-145.63;100.00;61273.97;5009787;28;20034;-66
2023/03/22 03:15:42;;;;;;;10.07;6.70;;;;;;;-145.63;100.00;61273.97;5023495;28;20092;-66
2023/03/22 03:18:25;;;;;;;9.75;7.30;;;;;;;-145.63;100.00;61273.97;5004883;28;20400;-65
2023/03/22 03:20:53;;;;;;;9.40;7.25;;;;;;;-145.63;100.00;61273.97;5004211;28;20038;-66
2023/03/22 03:24:00;;;;;;;7.82;6.32;;;;;;;-145.63;100.00;61273.97;5019600;28;20310;-67
2023/03/22 03:26:41;;;;;;;10.07;6.55;;;;;;;-145.63;100.00;61273.97;5007884;28;20073;-65
2023/03/22 03:29:16;;;;;;;7.68;6.45;;;;;;;-145.63;100.00;61273.97;5017537;28;20029;-67
2023/03/22 03:32:07;;;;;;;8.75;6.50;;;;;;;-145.63;100.00;61273.97;5024581;28;20104;-65
2023/03/22 03:34:44;;;;;;;7.95;6.43;;;;;;;-145.63;100.00;61273.97;5015727;28;20038;-65
2023/03/22 03:37:17;;;;;;;8.65;5.97;;;;;;;-145.63;100.00;61273.97;5009715;28;20279;-66
2023/03/22 03:39:50;;;;;;;6.65;5.75;;;;;;;-145.63;100.00;61273.97;5021697;28;20034;-65
2023/03/22 03:42:17;;;;;;;7.93;5.95;;;;;;;-145.63;100.00;61273.97;5004281;28;20036;-64
2023/03/22 03:44:44;;;;;;;6.78;5.30;;;;;;;-145.63;100.00;61273.97;5022243;28;20085;-66
2023/03/22 03:47:11;;;;;;;7.93;5.30;;;;;;;-145.63;100.00;61273.97;5010566;28;20291;-66
2023/03/22 03:49:37;;;;;;;7.95;5.28;;;;;;;-145.63;100.00;61273.97;5012371;28;20040;-65
2023/03/22 03:52:04;;;;;;;7.03;5.38;;;;;;;-145.63;100.00;61273.97;5019673;28;20034;-65
2023/03/22 03:54:29;;;;;;;6.45;5.03;;;;;;;-145.63;100.00;61273.97;5004490;28;20432;-65
2023/03/22 03:56:55;;;;;;;6.85;5.55;;;;;;;-145.63;100.00;61273.97;5023520;28;20041;-66
2023/03/22 03:59:21;;;;;;;7.75;4.88;;;;;;;-145.63;100.00;61273.97;5023081;28;20084;-65
2023/03/22 04:01:51;;;;;;;7.10;4.90;;;;;;;-145.63;100.00;61273.97;5023208;28;20128;-64
2023/03/22 04:04:25;;;;;;;6.03;4.90;;;;;;;-145.63;100.00;61273.97;5017361;28;20249;-64
2023/03/22 04:06:52;;;;;;;5.00;3.90;;;;;;;-145.63;100.00;61273.97;5006046;28;20035;-65
2023/03/22 04:09:18;;;;;;;3.88;3.42;;;;;;;-145.63;100.00;61273.97;5023571;28;20041;-64
2023/03/22 04:11:44;;;;;;;5.75;4.10;;;;;;;-145.63;100.00;61273.97;5040931;28;20206;-65
2023/03/22 04:14:09;;;;;;;2.92;2.72;;;;;;;-145.63;100.00;61273.97;5042884;28;20026;-64
2023/03/22 04:16:35;;;;;;;3.72;3.13;;;;;;;-145.63;100.00;61273.97;5043051;28;20025;-64
2023/03/22 04:19:00;;;;;;;3.50;3.10;;;;;;;-145.63;100.00;61273.97;5036410;28;20045;-65
2023/03/22 04:21:26;;;;;;;3.22;2.92;;;;;;;-145.63;100.00;61273.97;5022803;28;20263;-64
2023/03/22 04:23:52;;;;;;;3.78;3.25;;;;;;;-145.63;100.00;61273.97;5021973;28;20347;-64
2023/03/22 04:26:17;;;;;;;4.25;3.63;;;;;;;-145.63;100.00;61273.97;5037197;28;20033;-65
2023/03/22 04:28:43;;;;;;;6.32;3.90;;;;;;;-145.63;100.00;61273.97;5033767;28;20026;-66
2023/03/22 04:31:09;;;;;;;4.13;3.72;;;;;;;-145.63;100.00;61273.97;5023848;28;20101;-65
2023/03/22 04:33:38;;;;;;;4.95;3.80;;;;;;;-145.63;100.00;61273.97;5022651;28;20033;-66
2023/03/22 04:36:09;;;;;;;6.22;4.18;;;;;;;-145.63;100.00;61273.97;5043138;28;20032;-65
2023/03/22 04:38:36;;;;;;;4.35;3.95;;;;;;;-145.63;100.00;61273.97;5026716;28;20033;-66
2023/03/22 04:41:01;;;;;;;4.25;3.85;;;;;;;-145.63;100.00;61273.97;5021628;28;20025;-66
2023/03/22 04:43:27;;;;;;;5.70;3.60;;;;;;;-145.63;100.00;61273.97;5015459;28;20148;-65
2023/03/22 04:45:53;;;;;;;5.00;4.40;;;;;;;-145.63;100.00;61273.97;5005385;28;20118;-65
2023/03/22 04:48:20;;;;;;;4.60;4.07;;;;;;;-145.63;100.00;61273.97;5023156;28;20046;-67
2023/03/22 04:50:46;;;;;;;5.30;4.00;;;;;;;-145.63;100.00;61273.97;5005022;28;20037;-67
2023/03/22 04:53:12;;;;;;;5.15;4.65;;;;;;;-145.63;100.00;61273.97;5008337;28;20030;-67
2023/03/22 04:55:37;;;;;;;4.82;4.40;;;;;;;-145.63;100.00;61273.97;5013229;28;20065;-67
2023/03/22 04:58:03;;;;;;;4.38;3.97;;;;;;;-145.63;100.00;61273.97;5032095;28;20088;-67
2023/03/22 05:00:29;;;;;;;4.93;3.90;;;;;;;-145.63;100.00;61273.97;5026634;28;20037;-67
2023/03/22 05:02:55;;;;;;;6.78;3.85;;;;;;;-145.63;100.00;61273.97;5022761;28;20283;-65
2023/03/22 05:05:21;;;;;;;4.95;3.67;;;;;;;-145.63;100.00;61273.97;5007813;28;20040;-66
2023/03/22 05:07:46;;;;;;;3.67;3.20;;;;;;;-145.63;100.00;61273.97;5012315;28;20042;-66
2023/03/22 05:10:12;;;;;;;3.65;3.30;;;;;;;-145.63;100.00;61273.97;5001783;28;20027;-65
2023/03/22 05:12:38;;;;;;;5.05;3.03;;;;;;;-145.63;100.00;61273.97;5003246;28;20026;-65
2023/03/22 05:15:05;;;;;;;3.08;2.63;;;;;;;-145.63;100.00;61273.97;5022530;28;20064;-66
2023/03/22 05:17:31;;;;;;;3.22;2.97;;;;;;;-145.63;100.00;61273.97;5006704;28;20054;-66
2023/03/22 05:19:56;;;;;;;3.30;3.00;;;;;;;-145.63;100.00;61273.97;5020595;28;20040;-67
2023/03/22 05:22:22;;;;;;;3.60;3.08;;;;;;;-145.63;100.00;61273.97;5025041;28;20022;-68
2023/03/22 05:24:47;;;;;;;2.90;2.70;;;;;;;-145.63;100.00;61273.97;5025479;28;20030;-66
2023/03/22 05:27:13;;;;;;;3.40;3.10;;;;;;;-145.63;100.00;61273.97;5021547;28;20037;-68
2023/03/22 05:29:43;;;;;;;4.25;3.40;;;;;;;-145.63;100.00;61273.97;5026528;28;20038;-66
2023/03/22 05:32:10;;;;;;;3.30;3.00;;;;;;;-145.63;100.00;61273.97;5027693;28;20064;-66
2023/03/22 05:34:36;;;;;;;3.53;3.22;;;;;;;-145.63;100.00;61273.97;5018134;28;20034;-66
2023/03/22 05:37:02;;;;;;;3.28;3.08;;;;;;;-145.63;100.00;61273.97;5010006;28;20097;-66
2023/03/22 05:39:28;;;;;;;4.82;2.65;;;;;;;-145.63;100.00;61273.97;5034899;28;20025;-67
2023/03/22 05:41:54;;;;;;;7.68;3.28;;;;;;;-145.63;100.00;61273.97;5027077;28;20045;-67
2023/03/22 05:44:19;;;;;;;3.42;3.00;;;;;;;-145.63;100.00;61273.97;5012470;28;20068;-65
2023/03/22 05:46:45;;;;;;;3.38;3.08;;;;;;;-145.63;100.00;61273.97;5017899;28;20180;-67
2023/03/22 05:49:10;;;;;;;4.30;3.17;;;;;;;-145.63;100.00;61273.97;5025817;28;20034;-66
2023/03/22 05:51:40;;;;;;;3.42;3.03;;;;;;;-145.63;100.00;61273.97;5026063;28;20056;-66
2023/03/22 05:54:07;;;;;;;3.25;2.95;;;;;;;-145.63;100.00;61273.97;5026112;28;20021;-65
2023/03/22 05:56:34;;;;;;;3.13;2.83;;;;;;;-145.63;100.00;61273.97;5026274;28;20115;-66
2023/03/22 05:59:00;;;;;;;2.88;2.58;;;;;;;-145.63;100.00;61273.97;5026389;28;20061;-65
2023/03/22 06:01:25;;;;;;;3.55;2.58;;;;;;;-145.63;100.00;61273.97;5025796;28;20222;-65
2023/03/22 06:03:51;;;;;;;5.25;3.00;;;;;;;-145.63;100.00;61273.97;5023496;28;20022;-67
2023/03/22 06:06:17;;;;;;;3.75;3.40;;;;;;;-145.63;100.00;61273.97;5006164;28;20033;-66
2023/03/22 06:08:43;;;;;;;3.10;2.78;;;;;;;-145.63;100.00;61273.97;5024393;28;20021;-69
2023/03/22 06:11:09;;;;;;;3.80;3.28;;;;;;;-145.63;100.00;61273.97;5026250;28;20206;-65
2023/03/22 06:13:36;;;;;;;3.50;2.90;;;;;;;-145.63;100.00;61273.97;5018411;28;20054;-66
2023/03/22 06:16:03;;;;;;;4.07;2.88;;;;;;;-145.63;100.00;61273.97;5034943;28;20117;-66
2023/03/22 06:18:30;;;;;;;3.63;3.20;;;;;;;-145.63;100.00;61273.97;5008405;28;20102;-66
2023/03/22 06:20:56;;;;;;;3.95;3.47;;;;;;;-145.63;100.00;61273.97;5025700;28;20253;-66
2023/03/22 06:23:22;;;;;;;4.35;3.00;;;;;;;-145.63;100.00;61273.97;5038905;28;20061;-66
2023/03/22 06:25:47;;;;;;;4.25;2.85;;;;;;;-145.63;100.00;61273.97;5036391;28;20022;-66
2023/03/22 06:28:13;;;;;;;7.03;3.58;;;;;;;-145.63;100.00;61273.97;5020156;28;20442;-66
2023/03/22 06:30:39;;;;;;;3.83;3.20;;;;;;;-145.63;100.00;61273.97;5008392;28;20030;-67
2023/03/22 06:33:05;;;;;;;4.53;3.85;;;;;;;-145.63;100.00;61273.97;5025161;28;20034;-66
2023/03/22 06:35:31;;;;;;;5.20;3.72;;;;;;;-145.63;100.00;61273.97;5010124;28;20030;-66
2023/03/22 06:37:58;;;;;;;3.72;3.42;;;;;;;-145.63;100.00;61273.97;5015486;28;20034;-66
2023/03/22 06:40:23;;;;;;;4.32;3.80;;;;;;;-145.63;100.00;61273.97;5019549;28;20045;-67
2023/03/22 06:42:49;;;;;;;4.07;3.72;;;;;;;-145.63;100.00;61273.97;5023929;28;20021;-67
2023/03/22 06:45:15;;;;;;;3.90;3.53;;;;;;;-145.63;100.00;61273.97;5033840;28;20237;-68
2023/03/22 06:47:42;;;;;;;5.18;3.50;;;;;;;-145.63;100.00;61273.97;5034637;28;20042;-66
2023/03/22 06:50:08;;;;;;;5.38;4.47;;;;;;;-145.63;100.00;61273.97;5033790;28;20029;-67
2023/03/22 06:52:34;;;;;;;4.20;3.80;;;;;;;-145.63;100.00;61273.97;5030790;28;20022;-66
2023/03/22 06:54:59;;;;;;;6.55;3.90;;;;;;;-145.63;100.00;61273.97;5025937;28;20114;-66
2023/03/22 06:57:25;;;;;;;4.60;4.20;;;;;;;-145.63;100.00;61273.97;5043848;28;20049;-66
2023/03/22 06:59:51;;;;;;;7.93;4.45;;;;;;;-145.63;100.00;61273.97;5027744;28;20025;-67
2023/03/22 07:02:16;;;;;;;4.85;4.38;;;;;;;-145.63;100.00;61273.97;5033767;28;20045;-68
2023/03/22 07:04:44;;;;;;;6.07;4.95;;;;;;;-145.63;100.00;61273.97;5032723;28;20095;-67
2023/03/22 07:07:09;;;;;;;5.45;4.15;;;;;;;-145.63;100.00;61273.97;5032630;28;20033;-67
2023/03/22 07:09:35;;;;;;;4.95;4.38;;;;;;;-145.63;100.00;61273.97;5032804;28;20052;-69
2023/03/22 07:12:01;;;;;;;5.57;3.95;;;;;;;-145.63;100.00;61273.97;5033758;28;20029;-67
2023/03/22 07:14:27;;;;;;;5.03;3.75;;;;;;;-145.63;100.00;61273.97;5033586;28;20021;-67
2023/03/22 07:16:53;;;;;;;5.13;4.63;;;;;;;-145.63;100.00;61273.97;5033944;28;20056;-67
2023/03/22 07:19:18;;;;;;;5.13;4.50;;;;;;;-145.63;100.00;61273.97;5033464;28;20218;-68
2023/03/22 07:21:44;;;;;;;5.97;5.35;;;;;;;-145.63;100.00;61273.97;5033117;28;20038;-68
2023/03/22 07:24:10;;;;;;;12.40;8.10;;;;;;;-145.63;100.00;61273.97;5032338;28;20010;-68
2023/03/22 07:26:37;;;;;;;6.10;5.50;;;;;;;-145.63;100.00;61273.97;5033026;28;20092;-67
2023/03/22 07:29:03;;;;;;;5.53;4.70;;;;;;;-145.63;100.00;61273.97;5030503;28;20100;-67
2023/03/22 07:31:30;;;;;;;5.25;4.80;;;;;;;-145.63;100.00;61273.97;5032006;28;20033;-67
2023/03/22 07:33:55;;;;;;;6.03;4.40;;;;;;;-145.63;100.00;61273.97;5033254;28;20034;-67
2023/03/22 07:36:24;;;;;;;4.82;4.35;;;;;;;-145.63;100.00;61273.97;5034266;28;20028;-67
2023/03/22 07:38:50;;;;;;;5.38;4.88;;;;;;;-145.63;100.00;61273.97;5032214;28;20049;-67
2023/03/22 07:41:17;;;;;;;5.38;4.53;;;;;;;-145.63;100.00;61273.97;5034449;28;20064;-67
2023/03/22 07:43:42;;;;;;;5.68;4.43;;;;;;;-145.63;100.00;61273.97;5034340;28;20022;-67
2023/03/22 07:46:08;;;;;;;7.82;3.90;;;;;;;-145.63;100.00;61273.97;5034650;28;20068;-68
2023/03/22 07:48:34;;;;;;;4.35;3.28;;;;;;;-145.63;100.00;61273.97;5032908;28;20040;-68
2023/03/22 07:51:00;;;;;;;4.63;3.03;;;;;;;-145.63;100.00;61273.97;5030672;28;20365;-68
2023/03/22 07:53:26;;;;;;;3.40;3.10;;;;;;;-145.63;100.00;61273.97;5023342;28;20034;-67
2023/03/22 07:55:52;;;;;;;4.22;3.08;;;;;;;-145.63;100.00;61273.97;5026075;28;20212;-68
2023/03/22 07:58:18;;;;;;;3.25;2.60;;;;;;;-145.63;100.00;61273.97;5032773;28;20059;-68
2023/03/22 08:00:43;;;;;;;4.07;2.58;;;;;;;-145.63;100.00;61273.97;5031586;28;20053;-69
2023/03/22 08:03:11;;;;;;;5.95;2.88;;;;;;;-145.63;100.00;61273.97;5032174;28;20119;-69
2023/03/22 08:05:40;;;;;;;3.28;2.30;;;;;;;-145.63;100.00;61273.97;5030400;28;20029;-67
2023/03/22 08:08:06;;;;;;;3.42;2.60;;;;;;;-145.63;100.00;61273.97;5033673;28;20022;-66
2023/03/22 08:10:31;;;;;;;4.65;3.03;;;;;;;-145.63;100.00;61273.97;5019938;28;20076;-69
2023/03/22 08:12:58;;;;;;;2.60;2.40;;;;;;;-145.63;100.00;61273.97;5029974;28;20343;-68
2023/03/22 08:15:24;;;;;;;3.70;2.70;;;;;;;-145.63;100.00;61273.97;5031245;28;20045;-66
2023/03/22 08:17:49;;;;;;;4.35;2.50;;;;;;;-145.63;100.00;61273.97;5037223;28;20056;-67
2023/03/22 08:20:17;;;;;;;3.05;2.40;;;;;;;-145.63;100.00;61273.97;5023285;28;20180;-69
2023/03/22 08:22:44;;;;;;;4.18;3.78;;;;;;;-145.63;100.00;61273.97;5023147;28;20032;-68
2023/03/22 08:25:10;;;;;;;2.60;2.40;;;;;;;-145.63;100.00;61273.97;5017704;28;20065;-68
2023/03/22 08:27:36;;;;;;;3.15;2.30;;;;;;;-145.63;100.00;61273.97;5021942;28;20038;-68
2023/03/22 08:30:04;;;;;;;4.10;2.70;;;;;;;-145.63;100.00;61273.97;5022928;28;20102;-68
2023/03/22 08:32:30;;;;;;;3.92;2.70;;;;;;;-145.63;100.00;61273.97;5024033;28;20021;-68
2023/03/22 08:34:55;;;;;;;3.45;2.50;;;;;;;-145.63;100.00;61273.97;5022909;28;20309;-68
2023/03/22 08:37:21;;;;;;;3.15;2.53;;;;;;;-145.63;100.00;61273.97;5022556;28;20026;-68
2023/03/22 08:39:47;;;;;;;4.40;2.92;;;;;;;-145.63;100.00;61273.97;5018995;28;20052;-68
2023/03/22 08:42:12;;;;;;;3.60;2.70;;;;;;;-145.63;100.00;61273.97;5022499;28;20022;-68
2023/03/22 08:44:38;;;;;;;2.85;2.60;;;;;;;-145.63;100.00;61273.97;5021789;28;20048;-69
2023/03/22 08:47:04;;;;;;;3.95;2.80;;;;;;;-145.63;100.00;61273.97;5022475;28;20022;-69
2023/03/22 08:49:30;;;;;;;6.30;3.35;;;;;;;-145.63;100.00;61273.97;5021610;28;20121;-69
2023/03/22 08:51:56;;;;;;;5.70;3.85;;;;;;;-145.63;100.00;61273.97;5021241;28;20072;-67
2023/03/22 08:54:22;;;;;;;3.08;2.75;;;;;;;-145.63;100.00;61273.97;5017733;28;20026;-69
2023/03/22 08:56:49;;;;;;;2.83;2.50;;;;;;;-145.63;100.00;61273.97;5022544;28;20049;-68
2023/03/22 08:59:14;;;;;;;5.63;2.53;;;;;;;-145.63;100.00;61273.97;5022250;28;20021;-66
2023/03/22 09:01:40;;;;;;;5.65;2.60;;;;;;;-145.63;100.00;61273.97;5021763;28;20261;-68
2023/03/22 09:04:06;;;;;;;5.10;2.60;;;;;;;-145.63;100.00;61273.97;5021558;28;20026;-67
2023/03/22 09:06:32;;;;;;;3.65;2.63;;;;;;;-145.63;100.00;61273.97;5022298;28;20049;-67
2023/03/22 09:08:58;;;;;;;2.67;2.45;;;;;;;-145.63;100.00;61273.97;5021794;28;20025;-67
2023/03/22 09:11:24;;;;;;;2.95;2.30;;;;;;;-145.63;100.00;61273.97;5022763;28;20100;-69
2023/03/22 09:13:50;;;;;;;3.25;2.83;;;;;;;-145.63;100.00;61273.97;5026245;28;20034;-67
2023/03/22 09:16:17;;;;;;;3.00;2.70;;;;;;;-145.63;100.00;61273.97;5017119;28;20315;-68
2023/03/22 09:18:42;;;;;;;5.25;3.92;;;;;;;-145.63;100.00;61273.97;5023055;28;20033;-68
2023/03/22 09:21:10;;;;;;;2.60;2.40;;;;;;;-145.63;100.00;61273.97;5022448;28;20026;-68
2023/03/22 09:23:37;;;;;;;4.22;2.95;;;;;;;-145.63;100.00;61273.97;5022420;28;20026;-68
2023/03/22 09:26:07;;;;;;;7.65;3.67;;;;;;;-145.63;100.00;61273.97;5022235;28;20025;-69
2023/03/22 09:28:34;;;;;;;4.63;3.17;;;;;;;-145.63;100.00;61273.97;5019877;28;20022;-68
2023/03/22 09:31:06;;;;;;;3.08;2.80;;;;;;;-145.63;100.00;61273.97;5024324;28;20041;-67
2023/03/22 09:33:32;;;;;;;3.75;3.35;;;;;;;-145.63;100.00;61273.97;5019831;28;20080;-67
2023/03/22 09:35:58;;;;;;;5.97;3.70;;;;;;;-145.63;100.00;61273.97;5020681;28;20022;-68
2023/03/22 09:38:26;;;;;;;4.43;3.15;;;;;;;-145.63;100.00;61273.97;5020773;28;20090;-67
2023/03/22 09:40:59;;;;;;;6.13;2.83;;;;;;;-145.63;100.00;61273.97;5017950;28;20041;-67
2023/03/22 09:43:27;;;;;;;4.75;2.50;;;;;;;-145.63;100.00;61273.97;5023660;28;20045;-68
2023/03/22 09:45:53;;;;;;;4.45;2.75;;;;;;;-145.63;100.00;61273.97;5027652;28;20046;-67
2023/03/22 09:48:27;;;;;;;3.53;2.55;;;;;;;-145.63;100.00;61273.97;5031446;28;20033;-68
2023/03/22 09:50:54;;;;;;;4.68;2.90;;;;;;;-145.63;100.00;61273.97;5029510;28;20022;-68
2023/03/22 09:53:22;;;;;;;6.50;3.42;;;;;;;-145.63;100.00;61273.97;5033553;28;20093;-67
2023/03/22 09:55:59;;;;;;;5.85;2.75;;;;;;;-145.63;100.00;61273.97;5021533;28;20042;-68
2023/03/22 09:59:04;;;;;;;6.72;2.50;;;;;;;-145.63;100.00;61273.97;5022183;28;20052;-67
2023/03/22 10:01:40;;;;;;;4.10;2.30;;;;;;;-145.63;100.00;61273.97;5010142;28;20038;-67
2023/03/22 10:04:12;;;;;;;3.17;2.00;;;;;;;-145.63;100.00;61273.97;5022661;28;20022;-67
2023/03/22 10:06:42;;;;;;;3.38;1.90;;;;;;;-145.63;100.00;61273.97;5045299;28;20101;-67
2023/03/22 10:09:30;;;;;;;2.95;1.85;;;;;;;-145.63;100.00;61273.97;5024216;28;20036;-67
2023/03/22 10:12:05;;;;;;;2.75;2.00;;;;;;;-145.63;100.00;61273.97;5025846;28;20109;-68
2023/03/22 10:14:56;;;;;;;3.17;1.95;;;;;;;-145.63;100.00;61273.97;5013165;28;20085;-68
2023/03/22 10:17:25;;;;;;;3.17;1.95;;;;;;;-145.63;100.00;61273.97;5020590;28;20080;-67
2023/03/22 10:19:54;;;;;;;2.63;2.08;;;;;;;-145.63;100.00;61273.97;5018048;28;20136;-68
2023/03/22 10:22:28;;;;;;;4.20;2.00;;;;;;;-145.63;100.00;61273.97;5027890;28;20040;-69
2023/03/22 10:24:55;;;;;;;3.05;2.00;;;;;;;-145.63;100.00;61273.97;5022201;28;20087;-68
2023/03/22 10:27:22;;;;;;;3.53;2.17;;;;;;;-145.63;100.00;61273.97;5024619;28;20048;-67
2023/03/22 10:29:51;;;;;;;2.00;1.80;;;;;;;-145.63;100.00;61273.97;5024716;28;20029;-67
2023/03/22 10:32:21;;;;;;;3.38;1.95;;;;;;;-145.63;100.00;61273.97;5029570;28;20032;-69
2023/03/22 10:34:48;;;;;;;3.25;1.85;;;;;;;-145.63;100.00;61273.97;5025566;28;20095;-68
2023/03/22 10:37:18;;;;;;;2.47;2.03;;;;;;;-145.63;100.00;61273.97;5023237;28;20033;-68
2023/03/22 10:39:48;;;;;;;2.60;2.10;;;;;;;-145.63;100.00;61273.97;5005824;28;20034;-68
2023/03/22 10:42:28;;;;;;;3.40;1.95;;;;;;;-145.63;100.00;61273.97;5042746;28;20033;-67
2023/03/22 10:45:01;;;;;;;3.75;2.20;;;;;;;-145.63;100.00;61273.97;5029060;28;20040;-68
2023/03/22 10:47:32;;;;;;;4.70;2.15;;;;;;;-145.63;100.00;61273.97;5037862;28;20053;-69
2023/03/22 10:50:02;;;;;;;7.83;2.53;;;;;;;-145.63;100.00;61273.97;5013391;28;20080;-68
2023/03/22 10:52:53;;;;;;;4.03;2.20;;;;;;;-145.63;100.00;61273.97;5023746;28;20443;-69
2023/03/22 10:55:19;;;;;;;3.33;1.88;;;;;;;-145.63;100.00;61273.97;5024069;28;20076;-68
2023/03/22 10:57:56;;;;;;;3.13;1.83;;;;;;;-145.63;100.00;61273.97;5024920;28;20254;-67
2023/03/22 11:00:23;;;;;;;1.95;1.70;;;;;;;-145.63;100.00;61273.97;5024848;28;20034;-67
2023/03/22 11:02:58;;;;;;;4.10;2.10;;;;;;;-145.63;100.00;61273.97;5024974;28;20036;-68
2023/03/22 11:05:25;;;;;;;3.15;2.47;;;;;;;-145.63;100.00;61273.97;5010857;28;20038;-67
2023/03/22 11:07:52;;;;;;;3.75;2.28;;;;;;;-145.63;100.00;61273.97;5011832;28;20030;-67
2023/03/22 11:10:28;;;;;;;7.10;2.38;;;;;;;-145.63;100.00;61273.97;5007300;28;20038;-67
2023/03/22 11:12:55;;;;;;;5.35;2.78;;;;;;;-145.63;100.00;61273.97;5015427;28;20344;-68
2023/03/22 11:15:32;;;;;;;4.30;2.50;;;;;;;-145.63;100.00;61273.97;5038699;28;20038;-68
2023/03/22 11:18:03;;;;;;;3.63;2.70;;;;;;;-145.63;100.00;61273.97;5024489;28;20229;-66